createdAt,value
2022-10-30T00:00:34.608Z,98601.91
2022-10-30T00:01:34.559Z,98583.19
2022-10-30T00:02:34.542Z,98606.23
2022-10-30T00:03:34.728Z,98597.56
2022-10-30T00:04:34.496Z,98588.41
2022-10-30T00:05:34.514Z,98599.34
2022-10-30T00:06:34.575Z,98597.55
2022-10-30T00:07:34.555Z,98601.14
2022-10-30T00:08:34.769Z,98583.47
2022-10-30T00:09:34.560Z,98601.87
2022-10-30T00:10:34.603Z,98597.32
2022-10-30T00:11:34.718Z,98604.14
2022-10-30T00:12:34.779Z,98600.31
2022-10-30T00:13:34.897Z,98612.06
2022-10-30T00:14:34.654Z,98607.88
2022-10-30T00:15:34.896Z,98609.33
2022-10-30T00:16:34.691Z,98623.06
2022-10-30T00:17:34.699Z,98599.64
2022-10-30T00:18:35.759Z,98606.77
2022-10-30T00:19:34.754Z,98607.16
2022-10-30T00:20:35.758Z,98616.88
2022-10-30T00:21:34.952Z,98612.05
2022-10-30T00:22:35.574Z,98609.53
2022-10-30T00:23:34.833Z,98612.02
2022-10-30T00:24:34.851Z,98612.39
2022-10-30T00:25:35.290Z,98612.13
2022-10-30T00:26:34.867Z,98605.09
2022-10-30T00:27:34.873Z,98611.23
2022-10-30T00:28:34.891Z,98610.28
2022-10-30T00:29:34.946Z,98609.03
2022-10-30T00:30:35.326Z,98614.09
2022-10-30T00:31:34.935Z,98612.48
2022-10-30T00:32:35.004Z,98610.73
2022-10-30T00:33:35.217Z,98606.47
2022-10-30T00:34:35.083Z,98615.16
2022-10-30T00:35:35.057Z,98607.75
2022-10-30T00:36:35.009Z,98610.76
2022-10-30T00:37:35.032Z,98610.61
2022-10-30T00:38:35.054Z,98616.16
2022-10-30T00:39:35.088Z,98616.86
2022-10-30T00:40:35.064Z,98623.67
2022-10-30T00:41:35.385Z,98610.51
2022-10-30T00:42:35.106Z,98614.16
2022-10-30T00:43:36.824Z,98631.02
2022-10-30T00:45:35.747Z,98620.38
2022-10-30T00:46:38.707Z,98628.58
2022-10-30T00:47:37.468Z,98628.7
2022-10-30T00:48:35.950Z,98636.23
2022-10-30T00:49:36.967Z,98629.62
2022-10-30T00:50:37.333Z,98637.74
2022-10-30T00:51:37.999Z,98631.22
2022-10-30T00:52:37.183Z,98640.81
2022-10-30T00:53:36.283Z,98639.2
2022-10-30T00:54:36.612Z,98643.95
2022-10-30T00:55:38.585Z,98642.52
2022-10-30T00:56:36.311Z,98643.92
2022-10-30T00:57:37.099Z,98638.3
2022-10-30T00:58:39.425Z,98639.81
2022-10-30T00:59:36.643Z,98649.69
2022-10-30T01:00:36.881Z,98645.45
2022-10-30T01:01:42.689Z,98648.41
2022-10-30T01:02:41.027Z,98644.51
2022-10-30T01:03:40.033Z,98647
2022-10-30T01:04:40.962Z,98650.66
2022-10-30T01:05:40.158Z,98644.53
2022-10-30T01:06:40.958Z,98646.77
2022-10-30T01:07:39.662Z,98651.64
2022-10-30T01:08:39.971Z,98642.01
2022-10-30T01:09:39.646Z,98647.59
2022-10-30T01:10:40.094Z,98649.19
2022-10-30T01:11:40.103Z,98652.86
2022-10-30T01:12:40.634Z,98655.3
2022-10-30T01:13:41.743Z,98659.76
2022-10-30T01:14:42.884Z,98665.23
2022-10-30T01:15:50.333Z,98659.99
2022-10-30T01:17:53.053Z,98668.27
2022-10-30T01:27:15.016Z,98671.44
2022-10-30T01:33:30.158Z,98671.59
2022-10-30T01:34:29.260Z,98675.39
2022-10-30T01:35:30.234Z,98663.98
2022-10-30T01:37:34.444Z,98675.67
2022-10-30T01:39:35.602Z,98671.16
2022-10-30T01:40:33.844Z,98672.91
2022-10-30T01:41:33.613Z,98677.86
2022-10-30T01:43:35.195Z,98665.73
2022-10-30T01:44:34.655Z,98673.92
2022-10-30T01:46:44.744Z,98675.62
2022-10-30T01:57:07.121Z,98675.58
2022-10-30T02:00:13.825Z,98678.46
2022-10-30T02:01:12.760Z,98678.87
2022-10-30T02:02:12.331Z,98674.34
2022-10-30T02:03:12.177Z,98677.73
2022-10-30T02:04:13.017Z,98678.47
2022-10-30T02:05:14.383Z,98675.95
2022-10-30T02:06:11.971Z,98681.84
2022-10-30T02:07:12.450Z,98684.17
2022-10-30T02:08:12.335Z,98680.82
2022-10-30T02:09:14.682Z,98678.18
2022-10-30T02:10:12.529Z,98679.38
2022-10-30T02:11:12.065Z,98676.39
2022-10-30T02:12:12.704Z,98684.64
2022-10-30T02:13:12.486Z,98682.75
2022-10-30T02:14:13.397Z,98679.7
2022-10-30T02:15:12.469Z,98684.75
2022-10-30T02:16:12.476Z,98683.35
2022-10-30T02:17:12.715Z,98686.72
2022-10-30T02:18:12.987Z,98678.25
2022-10-30T02:19:12.877Z,98685.44
2022-10-30T02:20:22.144Z,98688.02
2022-10-30T02:21:13.742Z,98691.37
2022-10-30T02:22:13.877Z,98696.86
2022-10-30T02:23:13.929Z,98699.1
2022-10-30T02:24:13.785Z,98696.58
2022-10-30T02:25:14.230Z,98700.78
2022-10-30T02:26:13.844Z,98699.89
2022-10-30T02:27:13.918Z,98696.16
2022-10-30T02:28:13.884Z,98707.31
2022-10-30T02:29:13.891Z,98703.42
2022-10-30T02:30:14.235Z,98704.01
2022-10-30T02:31:13.952Z,98713.43
2022-10-30T02:32:13.925Z,98708.58
2022-10-30T02:33:14.120Z,98705.03
2022-10-30T02:34:14.239Z,98706.84
2022-10-30T02:35:13.995Z,98712.95
2022-10-30T02:36:14.346Z,98715.61
2022-10-30T02:37:14.056Z,98714.45
2022-10-30T02:38:13.971Z,98715.52
2022-10-30T02:39:14.050Z,98715.23
2022-10-30T02:40:14.236Z,98717.09
2022-10-30T02:41:14.067Z,98708.1
2022-10-30T02:42:14.173Z,98710.61
2022-10-30T02:43:14.091Z,98705.12
2022-10-30T02:44:14.286Z,98701.39
2022-10-30T02:45:14.139Z,98706.38
2022-10-30T02:46:14.146Z,98712.01
2022-10-30T02:47:14.272Z,98703.06
2022-10-30T02:48:14.229Z,98710.17
2022-10-30T02:49:14.187Z,98712.22
2022-10-30T02:50:14.191Z,98707.53
2022-10-30T02:51:14.365Z,98712.38
2022-10-30T02:52:14.251Z,98697.89
2022-10-30T02:53:14.226Z,98705.82
2022-10-30T02:54:14.253Z,98701.35
2022-10-30T02:55:14.375Z,98699.88
2022-10-30T02:56:14.527Z,98699.86
2022-10-30T02:57:14.254Z,98708.81
2022-10-30T02:58:14.277Z,98703.02
2022-10-30T02:59:14.315Z,98708.53
2022-10-30T03:00:14.819Z,98710.06
2022-10-30T03:01:16.434Z,98708.02
2022-10-30T03:02:14.462Z,98706.62
2022-10-30T03:03:15.793Z,98705.86
2022-10-30T03:04:15.363Z,98715.24
2022-10-30T03:05:15.552Z,98718.23
2022-10-30T03:06:16.503Z,98720.42
2022-10-30T03:07:15.472Z,98719.84
2022-10-30T03:08:15.412Z,98723.27
2022-10-30T03:09:15.468Z,98711.98
2022-10-30T03:10:15.672Z,98717.22
2022-10-30T03:11:16.438Z,98719.39
2022-10-30T03:12:16.079Z,98719.44
2022-10-30T03:13:15.475Z,98723.73
2022-10-30T03:14:15.670Z,98720.12
2022-10-30T03:15:15.749Z,98723.67
2022-10-30T03:17:20.161Z,98718.78
2022-10-30T03:18:20.482Z,98717.62
2022-10-30T03:19:20.211Z,98717.05
2022-10-30T03:20:20.189Z,98718.66
2022-10-30T03:21:21.110Z,98721.86
2022-10-30T03:22:20.256Z,98719.66
2022-10-30T03:23:20.180Z,98723.41
2022-10-30T03:24:20.207Z,98721.16
2022-10-30T03:25:20.212Z,98718.95
2022-10-30T03:26:20.647Z,98720.19
2022-10-30T03:27:20.445Z,98716.55
2022-10-30T03:28:20.443Z,98727.69
2022-10-30T03:29:20.239Z,98725.78
2022-10-30T03:30:20.292Z,98723.06
2022-10-30T03:31:20.470Z,98724.11
2022-10-30T03:32:20.345Z,98731.98
2022-10-30T03:33:20.326Z,98727.97
2022-10-30T03:34:20.328Z,98738.08
2022-10-30T03:35:20.313Z,98740.33
2022-10-30T03:36:20.332Z,98745.84
2022-10-30T03:37:20.360Z,98749.09
2022-10-30T03:38:20.413Z,98742.45
2022-10-30T03:39:20.379Z,98746.84
2022-10-30T03:40:20.371Z,98750.56
2022-10-30T03:41:20.452Z,98737.62
2022-10-30T03:42:20.385Z,98738.22
2022-10-30T03:43:20.721Z,98740.44
2022-10-30T03:44:20.435Z,98740.03
2022-10-30T03:45:20.461Z,98736.18
2022-10-30T03:46:20.430Z,98738.55
2022-10-30T03:47:20.500Z,98737.23
2022-10-30T03:48:22.059Z,98736.36
2022-10-30T03:49:20.495Z,98738.98
2022-10-30T03:50:20.531Z,98735
2022-10-30T03:51:20.496Z,98735.85
2022-10-30T03:52:20.524Z,98732.93
2022-10-30T03:53:20.619Z,98737.25
2022-10-30T03:54:20.589Z,98736.42
2022-10-30T03:55:21.033Z,98736.92
2022-10-30T03:56:20.519Z,98735.17
2022-10-30T03:57:20.593Z,98730.22
2022-10-30T03:58:20.624Z,98730.08
2022-10-30T03:59:20.645Z,98730.94
2022-10-30T04:00:20.921Z,98726.43
2022-10-30T04:01:20.770Z,98733.5
2022-10-30T04:02:20.677Z,98735.19
2022-10-30T04:03:20.691Z,98733.01
2022-10-30T04:04:20.737Z,98735.16
2022-10-30T04:05:22.355Z,98736.4
2022-10-30T04:06:20.688Z,98730.08
2022-10-30T04:07:20.690Z,98726.22
2022-10-30T04:08:20.954Z,98724.2
2022-10-30T04:09:20.800Z,98729.79
2022-10-30T04:10:23.747Z,98727.38
2022-10-30T04:11:21.002Z,98726.42
2022-10-30T04:12:21.199Z,98726.86
2022-10-30T04:13:20.974Z,98728.19
2022-10-30T04:14:21.009Z,98729.11
2022-10-30T04:15:20.943Z,98731.78
2022-10-30T04:16:21.230Z,98736.24
2022-10-30T04:17:21.011Z,98736.28
2022-10-30T04:18:21.018Z,98737.58
2022-10-30T04:19:21.179Z,98737.87
2022-10-30T04:20:21.723Z,98742.19
2022-10-30T04:21:21.048Z,98747.22
2022-10-30T04:22:21.111Z,98744.73
2022-10-30T04:23:21.956Z,98742.22
2022-10-30T04:24:21.107Z,98744.89
2022-10-30T04:25:21.052Z,98743.03
2022-10-30T04:26:21.065Z,98743.96
2022-10-30T04:27:21.187Z,98735.26
2022-10-30T04:28:21.149Z,98735.59
2022-10-30T04:29:21.192Z,98738.62
2022-10-30T04:30:21.808Z,98743.23
2022-10-30T04:31:21.370Z,98741.97
2022-10-30T04:32:21.498Z,98747.35
2022-10-30T04:33:21.215Z,98745.3
2022-10-30T04:34:21.229Z,98738.92
2022-10-30T04:35:22.488Z,98747.03
2022-10-30T04:36:21.246Z,98743.08
2022-10-30T04:37:21.286Z,98747.17
2022-10-30T04:38:21.311Z,98739.43
2022-10-30T04:39:21.294Z,98729.41
2022-10-30T04:40:22.269Z,98744.91
2022-10-30T04:41:21.322Z,98740.62
2022-10-30T04:42:21.359Z,98745.09
2022-10-30T04:43:21.453Z,98742.15
2022-10-30T04:44:21.627Z,98742.62
2022-10-30T04:45:21.668Z,98741
2022-10-30T04:46:21.313Z,98746.61
2022-10-30T04:47:21.467Z,98745.71
2022-10-30T04:48:21.456Z,98747.79
2022-10-30T04:49:21.399Z,98748.06
2022-10-30T04:50:26.458Z,98748.06
2022-10-30T04:51:23.647Z,98750.61
2022-10-30T04:52:23.092Z,98752.42
2022-10-30T04:53:23.170Z,98749.96
2022-10-30T04:54:23.175Z,98753.68
2022-10-30T04:55:23.174Z,98759.69
2022-10-30T04:56:23.188Z,98751.5
2022-10-30T04:57:23.215Z,98755.75
2022-10-30T04:58:23.257Z,98754.98
2022-10-30T04:59:23.443Z,98755.06
2022-10-30T05:00:23.216Z,98755.51
2022-10-30T05:01:23.767Z,98745.66
2022-10-30T05:02:23.523Z,98758.77
2022-10-30T05:03:24.511Z,98753.02
2022-10-30T05:04:23.426Z,98760.62
2022-10-30T05:05:23.427Z,98753.24
2022-10-30T05:06:24.702Z,98757.52
2022-10-30T05:07:23.269Z,98765.61
2022-10-30T05:08:23.459Z,98759.5
2022-10-30T05:09:23.361Z,98762
2022-10-30T05:10:23.695Z,98763.9
2022-10-30T05:11:23.441Z,98763.52
2022-10-30T05:12:23.828Z,98769.44
2022-10-30T05:13:23.921Z,98769.55
2022-10-30T05:14:23.442Z,98769.66
2022-10-30T05:15:23.400Z,98771.66
2022-10-30T05:16:23.411Z,98774.23
2022-10-30T05:17:23.858Z,98767.58
2022-10-30T05:18:23.405Z,98772.02
2022-10-30T05:19:23.867Z,98774.78
2022-10-30T05:20:23.433Z,98773.06
2022-10-30T05:21:24.579Z,98769.4
2022-10-30T05:22:23.929Z,98772.36
2022-10-30T05:23:23.988Z,98774.68
2022-10-30T05:24:24.216Z,98772.23
2022-10-30T05:25:24.364Z,98777.75
2022-10-30T05:26:23.515Z,98779.11
2022-10-30T05:27:23.576Z,98774.3
2022-10-30T05:28:24.019Z,98778.67
2022-10-30T05:29:23.986Z,98778.29
2022-10-30T05:30:24.580Z,98777.81
2022-10-30T05:31:24.266Z,98780.47
2022-10-30T05:32:24.522Z,98780.48
2022-10-30T05:33:24.289Z,98782.66
2022-10-30T05:34:24.853Z,98784.08
2022-10-30T05:35:24.702Z,98784.28
2022-10-30T05:36:24.060Z,98784.02
2022-10-30T05:37:24.472Z,98780.05
2022-10-30T05:38:24.966Z,98779.78
2022-10-30T05:39:24.138Z,98775.99
2022-10-30T05:40:25.057Z,98780.1
2022-10-30T05:41:24.470Z,98785.19
2022-10-30T05:42:24.325Z,98780.52
2022-10-30T05:43:24.707Z,98782.42
2022-10-30T05:44:34.715Z,98782.62
2022-10-30T05:45:26.141Z,98787.81
2022-10-30T05:46:25.504Z,98780.05
2022-10-30T05:47:25.524Z,98778.01
2022-10-30T05:48:25.561Z,98778.58
2022-10-30T05:49:25.535Z,98778.55
2022-10-30T05:50:26.191Z,98781.77
2022-10-30T05:51:25.565Z,98786.33
2022-10-30T05:52:25.566Z,98778.51
2022-10-30T05:53:25.850Z,98785.41
2022-10-30T05:54:25.605Z,98789.41
2022-10-30T05:55:26.299Z,98781.55
2022-10-30T05:56:25.629Z,98780.34
2022-10-30T05:57:27.905Z,98786.2
2022-10-30T05:58:25.870Z,98779.05
2022-10-30T05:59:25.672Z,98781.3
2022-10-30T06:00:26.519Z,98785.5
2022-10-30T06:01:26.860Z,98793.95
2022-10-30T06:02:26.764Z,98788.19
2022-10-30T06:03:26.670Z,98795.64
2022-10-30T06:04:26.684Z,98786.45
2022-10-30T06:05:26.977Z,98790.8
2022-10-30T06:06:26.929Z,98789.04
2022-10-30T06:07:26.726Z,98786.64
2022-10-30T06:08:27.565Z,98785.8
2022-10-30T06:09:27.517Z,98785.14
2022-10-30T06:10:27.916Z,98789.33
2022-10-30T06:11:27.543Z,98795.09
2022-10-30T06:12:27.841Z,98801.88
2022-10-30T06:13:27.581Z,98800.76
2022-10-30T06:14:27.629Z,98801.48
2022-10-30T06:15:28.243Z,98806.05
2022-10-30T06:16:27.691Z,98803.19
2022-10-30T06:17:29.782Z,98811.72
2022-10-30T06:18:27.634Z,98814.75
2022-10-30T06:19:27.845Z,98807.8
2022-10-30T06:20:28.890Z,98815.89
2022-10-30T06:21:27.647Z,98818.05
2022-10-30T06:22:27.705Z,98807.53
2022-10-30T06:23:27.703Z,98805.73
2022-10-30T06:24:27.709Z,98805.1
2022-10-30T06:25:28.652Z,98805
2022-10-30T06:26:27.736Z,98800.23
2022-10-30T06:27:27.733Z,98804.66
2022-10-30T06:28:27.756Z,98803.82
2022-10-30T06:29:27.769Z,98805.83
2022-10-30T06:30:28.277Z,98801.75
2022-10-30T06:31:27.845Z,98810.22
2022-10-30T06:32:27.823Z,98803.05
2022-10-30T06:33:27.833Z,98806.73
2022-10-30T06:34:27.838Z,98808.98
2022-10-30T06:35:28.119Z,98804.23
2022-10-30T06:36:27.905Z,98807.78
2022-10-30T06:37:27.987Z,98806.15
2022-10-30T06:38:27.903Z,98806.38
2022-10-30T06:39:27.906Z,98811.48
2022-10-30T06:40:28.701Z,98820.14
2022-10-30T06:41:30.406Z,98807.41
2022-10-30T06:42:27.917Z,98818.78
2022-10-30T06:43:27.970Z,98822.62
2022-10-30T06:44:27.961Z,98848.77
2022-10-30T06:45:27.974Z,98826.97
2022-10-30T06:46:32.456Z,98830.85
2022-10-30T06:47:34.303Z,98832.12
2022-10-30T06:48:30.540Z,98842.14
2022-10-30T06:49:30.511Z,98833.88
2022-10-30T06:50:30.540Z,98835.34
2022-10-30T06:51:30.787Z,98841.5
2022-10-30T06:52:30.739Z,98833.62
2022-10-30T06:53:30.593Z,98823.58
2022-10-30T06:54:30.596Z,98828.73
2022-10-30T06:55:30.615Z,98825.8
2022-10-30T06:56:30.619Z,98812.18
2022-10-30T06:57:30.702Z,98807.6
2022-10-30T06:58:30.645Z,98809.56
2022-10-30T06:59:30.654Z,98807.35
2022-10-30T07:00:30.813Z,98815.13
2022-10-30T07:01:30.772Z,98816.75
2022-10-30T07:02:31.046Z,98823.16
2022-10-30T07:03:30.915Z,98826.94
2022-10-30T07:04:30.730Z,98828.02
2022-10-30T07:05:30.720Z,98835.3
2022-10-30T07:06:30.763Z,98840.66
2022-10-30T07:07:30.814Z,98820.73
2022-10-30T07:08:30.772Z,98825.08
2022-10-30T07:09:30.781Z,98829.69
2022-10-30T07:10:30.975Z,98831.38
2022-10-30T07:11:30.807Z,98818.69
2022-10-30T07:12:30.938Z,98825.72
2022-10-30T07:13:30.833Z,98839.22
2022-10-30T07:14:30.851Z,98853.11
2022-10-30T07:15:31.800Z,98839.57
2022-10-30T07:16:30.893Z,98833.95
2022-10-30T07:17:31.625Z,98820.81
2022-10-30T07:18:31.597Z,98838.92
2022-10-30T07:19:31.621Z,98830.94
2022-10-30T07:20:33.061Z,98829.5
2022-10-30T07:21:31.630Z,98850.75
2022-10-30T07:22:31.685Z,98850.95
2022-10-30T07:23:31.647Z,98855.12
2022-10-30T07:24:31.668Z,98837.38
2022-10-30T07:25:31.823Z,98844.74
2022-10-30T07:26:31.675Z,98847.3
2022-10-30T07:27:31.949Z,98850.27
2022-10-30T07:28:31.708Z,98841.5
2022-10-30T07:29:31.717Z,98843.89
2022-10-30T07:30:31.748Z,98850.57
2022-10-30T07:31:41.819Z,98848.11
2022-10-30T07:32:33.783Z,98862.3
2022-10-30T07:33:33.760Z,98854.98
2022-10-30T07:34:33.790Z,98853.29
2022-10-30T07:35:35.031Z,98851.37
2022-10-30T07:36:33.797Z,98856.62
2022-10-30T07:37:34.039Z,98854.47
2022-10-30T07:38:33.857Z,98862.12
2022-10-30T07:39:33.840Z,98864.88
2022-10-30T07:40:34.420Z,98873.38
2022-10-30T07:41:33.876Z,98873.49
2022-10-30T07:42:33.890Z,98863.61
2022-10-30T07:43:33.924Z,98868.88
2022-10-30T07:44:33.944Z,98857.45
2022-10-30T07:45:33.939Z,98848.58
2022-10-30T07:46:33.924Z,98857.89
2022-10-30T07:47:38.365Z,98852.33
2022-10-30T07:48:34.758Z,98856.46
2022-10-30T07:49:34.589Z,98854.88
2022-10-30T07:50:34.614Z,98861.42
2022-10-30T07:51:34.617Z,98855.76
2022-10-30T07:52:34.661Z,98856.78
2022-10-30T07:53:34.857Z,98871.07
2022-10-30T07:54:34.661Z,98868.23
2022-10-30T07:55:34.675Z,98862.59
2022-10-30T07:56:34.685Z,98858.83
2022-10-30T07:57:35.550Z,98853.62
2022-10-30T07:58:34.764Z,98862.22
2022-10-30T07:59:34.791Z,98863.08
2022-10-30T08:00:34.743Z,98863.36
2022-10-30T08:01:34.934Z,98875.48
2022-10-30T08:02:34.920Z,98858.19
2022-10-30T08:03:34.806Z,98852.44
2022-10-30T08:04:34.785Z,98857.41
2022-10-30T08:05:34.822Z,98854.18
2022-10-30T08:06:34.831Z,98856.02
2022-10-30T08:07:36.031Z,98848.28
2022-10-30T08:08:37.919Z,98853.83
2022-10-30T08:09:39.477Z,98838.84
2022-10-30T08:10:39.453Z,98836.7
2022-10-30T08:11:39.466Z,98840.12
2022-10-30T08:12:39.730Z,98851.66
2022-10-30T08:13:39.473Z,98844.06
2022-10-30T08:14:39.575Z,98854.53
2022-10-30T08:15:39.533Z,98845.78
2022-10-30T08:16:39.534Z,98844.05
2022-10-30T08:17:43.814Z,98862.14
2022-10-30T08:18:40.061Z,98863.16
2022-10-30T08:19:40.079Z,98859.16
2022-10-30T08:20:40.105Z,98853.54
2022-10-30T08:21:40.073Z,98868.03
2022-10-30T08:22:47.002Z,98860.66
2022-10-30T08:23:43.220Z,98857.06
2022-10-30T08:24:43.272Z,98853.47
2022-10-30T08:25:43.264Z,98860.19
2022-10-30T08:26:43.253Z,98866.7
2022-10-30T08:28:44.878Z,98839.54
2022-10-30T08:29:44.959Z,98842.09
2022-10-30T08:30:44.918Z,98843.43
2022-10-30T08:31:47.693Z,98850.66
2022-10-30T08:32:44.954Z,98856.25
2022-10-30T08:33:44.951Z,98861.27
2022-10-30T08:34:44.987Z,98861.23
2022-10-30T08:35:49.153Z,98857.75
2022-10-30T08:36:49.367Z,98854.71
2022-10-30T08:37:45.690Z,98859.57
2022-10-30T08:38:45.700Z,98858.14
2022-10-30T08:39:45.752Z,98863.53
2022-10-30T08:40:45.803Z,98862.95
2022-10-30T08:41:45.774Z,98859.92
2022-10-30T08:42:55.485Z,98863.7
2022-10-30T08:43:46.957Z,98867.97
2022-10-30T08:44:47.219Z,98860.03
2022-10-30T08:45:47.170Z,98865.3
2022-10-30T08:46:47.022Z,98871.05
2022-10-30T08:47:47.403Z,98867.7
2022-10-30T08:48:47.387Z,98862.66
2022-10-30T08:49:47.261Z,98868.53
2022-10-30T08:50:47.069Z,98872.78
2022-10-30T08:51:47.079Z,98867.38
2022-10-30T08:52:49.541Z,98882.3
2022-10-30T08:53:48.738Z,98884.28
2022-10-30T08:54:48.778Z,98875.41
2022-10-30T08:55:48.775Z,98876.39
2022-10-30T08:56:48.795Z,98876.49
2022-10-30T08:57:48.813Z,98865.73
2022-10-30T08:58:50.105Z,98879.94
2022-10-30T08:59:48.904Z,98878.98
2022-10-30T09:00:48.883Z,98883.45
2022-10-30T09:01:48.959Z,98891.58
2022-10-30T09:02:48.914Z,98887.53
2022-10-30T09:03:48.914Z,98894.45
2022-10-30T09:04:48.929Z,98890.23
2022-10-30T09:05:49.425Z,98883.75
2022-10-30T09:06:48.947Z,98887.73
2022-10-30T09:07:48.966Z,98888.34
2022-10-30T09:08:49.178Z,98891.54
2022-10-30T09:09:49.071Z,98892.75
2022-10-30T09:10:53.793Z,98895.83
2022-10-30T09:11:50.023Z,98890.77
2022-10-30T09:12:59.327Z,98906.7
2022-10-30T09:13:50.529Z,98899.47
2022-10-30T09:14:50.608Z,98890.82
2022-10-30T09:15:50.615Z,98883.28
2022-10-30T09:16:50.584Z,98888.97
2022-10-30T09:18:52.492Z,98889.95
2022-10-30T09:19:52.781Z,98890.11
2022-10-30T09:20:52.537Z,98884.8
2022-10-30T09:21:52.534Z,98885.2
2022-10-30T09:22:52.557Z,98885.09
2022-10-30T09:23:52.565Z,98882.5
2022-10-30T09:24:52.628Z,98877.69
2022-10-30T09:25:52.582Z,98883.42
2022-10-30T09:26:52.779Z,98875.25
2022-10-30T09:27:52.655Z,98893.86
2022-10-30T09:28:52.634Z,98887.04
2022-10-30T09:29:52.707Z,98896.2
2022-10-30T09:30:52.668Z,98895.41
2022-10-30T09:31:52.673Z,98894.09
2022-10-30T09:33:00.567Z,98891.58
2022-10-30T09:33:57.014Z,98897.05
2022-10-30T09:34:57.053Z,98892.59
2022-10-30T09:35:57.051Z,98895.45
2022-10-30T09:36:57.077Z,98894.19
2022-10-30T09:37:57.561Z,98892.07
2022-10-30T09:38:57.491Z,98900.34
2022-10-30T09:39:57.123Z,98900.16
2022-10-30T10:01:47.752Z,98893.89
2022-10-30T10:02:53.348Z,98898.66
2022-10-30T10:04:48.107Z,98906.48
2022-10-30T10:05:48.330Z,98906.41
2022-10-30T10:06:46.760Z,98896.42
2022-10-30T10:07:50.004Z,98901.31
2022-10-30T10:09:53.783Z,98895.46
2022-10-30T10:10:55.919Z,98903.19
2022-10-30T10:11:58.098Z,98881.95
2022-10-30T10:12:58.707Z,98884.42
2022-10-30T10:15:02.497Z,98895.11
2022-10-30T10:16:07.538Z,98897.89
2022-10-30T10:17:05.388Z,98884.05
2022-10-30T10:18:06.867Z,98873.55
2022-10-30T10:21:17.082Z,98888.84
2022-10-30T10:23:25.607Z,98896.34
2022-10-30T10:24:26.944Z,98893.02
2022-10-30T10:25:23.672Z,98877.95
2022-10-30T10:30:36.310Z,98876.59
2022-10-30T10:32:41.648Z,98889.31
2022-10-30T10:40:03.146Z,98886.41
2022-10-30T10:44:16.112Z,98887.04
2022-10-30T10:48:27.305Z,98898.33
2022-10-30T10:50:28.420Z,98904.79
2022-10-30T10:51:29.230Z,98896.67
2022-10-30T10:53:30.273Z,98895.4
2022-10-30T10:55:35.134Z,98899.57
2022-10-30T10:56:33.976Z,98905.38
2022-10-30T10:57:40.486Z,98900.98
2022-10-30T10:58:39.283Z,98902.73
2022-10-30T10:59:43.076Z,98902.18
2022-10-30T11:00:39.884Z,98906.59
2022-10-30T11:01:40.827Z,98906.53
2022-10-30T11:04:43.251Z,98909.71
2022-10-30T11:05:43.910Z,98911.89
2022-10-30T11:06:43.738Z,98912.62
2022-10-30T11:07:48.402Z,98920.16
2022-10-30T11:08:44.767Z,98920.06
2022-10-30T11:09:46.642Z,98920.53
2022-10-30T11:10:46.718Z,98928.03
2022-10-30T11:11:44.859Z,98928.74
2022-10-30T11:12:44.927Z,98934.55
2022-10-30T11:13:45.410Z,98934.3
2022-10-30T11:14:44.841Z,98924.1
2022-10-30T11:15:53.729Z,98920.26
2022-10-30T11:18:54.552Z,98926
2022-10-30T11:19:54.454Z,98931.45
2022-10-30T11:21:52.944Z,98938.55
2022-10-30T11:22:51.222Z,98924.2
2022-10-30T11:23:51.605Z,98926.29
2022-10-30T11:24:51.253Z,98928.61
2022-10-30T11:25:51.247Z,98929.55
2022-10-30T11:26:51.233Z,98926.69
2022-10-30T11:27:55.305Z,98924.22
2022-10-30T11:29:57.490Z,98920.19
2022-10-30T11:32:57.412Z,98917.23
2022-10-30T11:33:56.433Z,98929
2022-10-30T11:36:13.008Z,98941.1
2022-10-30T11:37:03.299Z,98921.99
2022-10-30T11:39:12.311Z,98936.78
2022-10-30T11:41:14.061Z,98930.33
2022-10-30T11:42:14.679Z,98930.89
2022-10-30T11:43:16.120Z,98925.91
2022-10-30T11:44:13.649Z,98928.35
2022-10-30T11:45:15.498Z,98922.7
2022-10-30T11:46:20.514Z,98931.03
2022-10-30T11:47:19.731Z,98928.15
2022-10-30T11:48:23.212Z,98929.25
2022-10-30T11:49:27.522Z,98933.42
2022-10-30T11:50:26.201Z,98942.48
2022-10-30T11:51:32.148Z,98931.93
2022-10-30T11:52:29.186Z,98938.41
2022-10-30T11:53:41.209Z,98932.69
2022-10-30T11:54:36.500Z,98937.63
2022-10-30T11:55:35.765Z,98936.47
2022-10-30T11:56:34.317Z,98938.27
2022-10-30T11:57:35.481Z,98945.3
2022-10-30T11:58:38.321Z,98944.27
2022-10-30T11:59:35.003Z,98941.8
2022-10-30T12:00:36.059Z,98950.35
2022-10-30T12:01:35.675Z,98938.94
2022-10-30T12:02:40.817Z,98937.73
2022-10-30T12:03:38.539Z,98937.27
2022-10-30T12:04:37.519Z,98942.62
2022-10-30T12:05:39.123Z,98954.11
2022-10-30T12:06:37.694Z,98950.72
2022-10-30T12:07:37.539Z,98947.81
2022-10-30T12:08:37.781Z,98943.47
2022-10-30T12:09:43.658Z,98945.22
2022-10-30T12:11:45.055Z,98955.11
2022-10-30T12:12:45.161Z,98952.51
2022-10-30T12:13:45.244Z,98946.59
2022-10-30T12:14:45.094Z,98953.75
2022-10-30T12:15:46.853Z,98963.25
2022-10-30T12:16:46.602Z,98959.88
2022-10-30T12:17:51.794Z,98961.82
2022-10-30T12:18:56.935Z,98955.64
2022-10-30T12:19:50.644Z,98964.34
2022-10-30T12:20:50.496Z,98962.27
2022-10-30T12:21:50.194Z,98962.66
2022-10-30T12:22:48.947Z,98957.41
2022-10-30T12:23:53.870Z,98962.97
2022-10-30T12:24:50.557Z,98963.36
2022-10-30T12:25:52.256Z,98959.31
2022-10-30T12:26:53.030Z,98965.91
2022-10-30T12:27:57.892Z,98963.58
2022-10-30T12:28:57.362Z,98967.62
2022-10-30T12:31:06.381Z,98986.1
2022-10-30T12:32:00.054Z,98978.38
2022-10-30T12:33:04.793Z,98969.62
2022-10-30T12:35:14.331Z,98967.89
2022-10-30T12:36:08.051Z,98972.84
2022-10-30T12:39:16.870Z,98977.44
2022-10-30T12:40:21.422Z,98970.88
2022-10-30T12:41:27.016Z,98971.86
2022-10-30T12:42:18.498Z,98961.62
2022-10-30T12:43:25.778Z,98960.25
2022-10-30T12:45:27.892Z,98955.52
2022-10-30T12:48:33.676Z,98976.6
2022-10-30T12:50:47.101Z,98965.52
2022-10-30T12:52:46.493Z,98982.69
2022-10-30T12:55:54.330Z,98975.58
2022-10-30T12:57:01.380Z,98973.8
2022-10-30T12:58:01.366Z,98981.77
2022-10-30T13:01:12.496Z,98984
2022-10-30T13:06:31.358Z,98976.75
2022-10-30T13:07:26.500Z,98986.66
2022-10-30T13:08:29.679Z,98969.94
2022-10-30T13:09:37.836Z,98977.04
2022-10-30T13:11:38.131Z,98964.22
2022-10-30T13:12:37.904Z,98982.22
2022-10-30T13:13:40.898Z,98978.47
2022-10-30T13:16:40.646Z,98989.2
2022-10-30T13:17:40.679Z,98986.72
2022-10-30T13:18:40.708Z,98987.41
2022-10-30T13:19:41.335Z,98984.33
2022-10-30T13:20:42.219Z,98979.02
2022-10-30T13:24:00.541Z,98991.28
2022-10-30T13:30:18.255Z,98981.94
2022-10-30T13:33:24.122Z,98985.34
2022-10-30T13:39:36.761Z,98990.83
2022-10-30T13:40:41.789Z,98992.2
2022-10-30T13:47:58.843Z,99000.45
2022-10-30T13:50:04.296Z,99001.28
2022-10-30T13:53:03.288Z,98999.99
2022-10-30T13:55:17.828Z,98995.27
2022-10-30T13:56:12.532Z,98998.8
2022-10-30T14:00:23.434Z,99003.34
2022-10-30T14:01:25.651Z,99005.59
2022-10-30T14:06:39.865Z,99003.05
2022-10-30T14:07:45.474Z,99004.55
2022-10-30T14:09:40.974Z,99011.02
2022-10-30T14:11:41.706Z,99008.88
2022-10-30T14:12:44.509Z,99019.72
2022-10-30T14:13:46.095Z,99016.89
2022-10-30T14:14:46.759Z,99015.53
2022-10-30T14:15:44.493Z,99018.52
2022-10-30T14:16:44.847Z,99020.8
2022-10-30T14:20:52.747Z,99008.94
2022-10-30T14:21:53.352Z,99014.07
2022-10-30T14:24:02.227Z,99019.81
2022-10-30T14:25:00.035Z,99015.63